Time;durP1;ratioP1;P1;durP2;ratioP2;P2;SDS_P1;SDS_P2;PMS_P1;PMS_P2;Temp;Humidity;BMP_temperature;BMP_pressure;BME280_temperature;BME280_humidity;BME280_pressure;Samples;Min_cycle;Max_cycle;Signal;HPM_P1;HPM_P2
2024/03/16 00:00:23;;;;;;;12.63;11.57;;;;;;;29.04;71.80;101199.72;5052235;28;70505;-32
2024/03/16 00:02:54;;;;;;;12.93;11.75;;;;;;;29.12;71.98;101205.78;5034556;28;65079;-31
2024/03/16 00:05:24;;;;;;;12.65;11.63;;;;;;;29.13;72.00;101209.31;5043499;28;70361;-31
2024/03/16 00:07:55;;;;;;;11.77;10.88;;;;;;;29.18;72.32;101212.25;5036627;28;66316;-32
2024/03/16 00:10:25;;;;;;;12.18;11.15;;;;;;;29.20;72.08;101223.69;5038965;28;70215;-32
2024/03/16 00:12:56;;;;;;;12.85;10.65;;;;;;;29.20;71.67;101215.59;5054108;28;66008;-30
2024/03/16 00:15:27;;;;;;;13.23;11.90;;;;;;;29.25;72.74;101223.88;5036903;28;70063;-31
2024/03/16 00:17:57;;;;;;;14.95;13.55;;;;;;;29.25;74.64;101229.28;5041313;28;66486;-31
2024/03/16 00:20:27;;;;;;;26.10;15.43;;;;;;;29.30;75.23;101229.53;5048422;28;69817;-32
2024/03/16 00:22:58;;;;;;;28.60;17.05;;;;;;;29.34;77.11;101228.13;5060113;28;66674;-31
2024/03/16 00:25:28;;;;;;;27.25;17.35;;;;;;;29.37;77.17;101235.81;5047255;28;70053;-32
2024/03/16 00:27:59;;;;;;;31.02;18.20;;;;;;;29.43;77.70;101233.34;5055550;28;65154;-31
2024/03/16 00:30:30;;;;;;;27.30;17.93;;;;;;;29.46;79.44;101233.75;5050269;28;69616;-31
2024/03/16 00:33:01;;;;;;;29.15;17.55;;;;;;;29.52;77.73;101240.22;5054600;28;66351;-30
2024/03/16 00:35:32;;;;;;;27.83;17.65;;;;;;;29.54;78.33;101248.97;5053328;28;70138;-31
2024/03/16 00:38:02;;;;;;;26.38;17.88;;;;;;;29.57;78.84;101245.88;5053836;28;66658;-30
2024/03/16 00:40:33;;;;;;;32.10;16.67;;;;;;;29.55;78.69;101246.06;5044694;28;69502;-31
2024/03/16 00:43:04;;;;;;;30.58;16.23;;;;;;;29.65;78.50;101256.53;5044453;28;66242;-31
2024/03/16 00:45:35;;;;;;;32.55;18.27;;;;;;;29.67;79.28;101257.16;5043685;28;70269;-32
2024/03/16 00:48:05;;;;;;;24.10;18.98;;;;;;;29.70;78.08;101258.59;5054148;28;66170;-32
2024/03/16 00:50:36;;;;;;;32.00;18.17;;;;;;;29.67;79.05;101259.88;5039604;28;70575;-32
2024/03/16 00:53:08;;;;;;;25.90;18.48;;;;;;;29.69;78.90;101263.19;5059655;28;66421;-31
2024/03/16 00:55:39;;;;;;;28.13;19.30;;;;;;;29.70;78.68;101264.88;5053935;28;70525;-33
2024/03/16 00:58:10;;;;;;;28.92;20.50;;;;;;;29.72;78.36;101262.78;5053944;28;65701;-33
2024/03/16 01:00:40;;;;;;;24.88;19.67;;;;;;;29.75;78.39;101272.34;5042515;28;70268;-31
2024/03/16 01:03:11;;;;;;;24.50;20.15;;;;;;;29.77;78.81;101271.13;5048988;28;65197;-32
2024/03/16 01:05:42;;;;;;;29.10;20.00;;;;;;;29.82;79.23;101284.88;5044216;28;70968;-34
2024/03/16 01:08:13;;;;;;;27.45;20.10;;;;;;;29.83;78.33;101277.56;5059766;28;65668;-32
2024/03/16 01:10:43;;;;;;;22.23;19.90;;;;;;;29.83;78.66;101281.13;5060177;28;69181;-32
2024/03/16 01:13:15;;;;;;;30.60;20.25;;;;;;;29.88;79.17;101285.09;5040424;28;66337;-31
2024/03/16 01:15:45;;;;;;;32.13;19.60;;;;;;;29.87;78.74;101283.44;5054268;28;70017;-32
2024/03/16 01:18:16;;;;;;;28.55;20.17;;;;;;;29.91;78.43;101288.22;5050869;28;65103;-31
2024/03/16 01:20:47;;;;;;;23.08;17.70;;;;;;;29.95;78.87;101284.06;5053223;28;70019;-33
2024/03/16 01:23:19;;;;;;;23.77;17.48;;;;;;;29.98;78.64;101299.91;5056167;28;65610;-33
2024/03/16 01:25:49;;;;;;;;;;;;;;;29.93;81.55;101301.53;5052627;28;70377;-31
2024/03/16 01:28:20;;;;;;;22.98;17.17;;;;;;;30.04;78.85;101300.94;5054677;28;66291;-32
2024/03/16 01:30:51;;;;;;;26.30;18.65;;;;;;;30.05;78.86;101299.91;5048757;28;69413;-33
2024/03/16 01:33:22;;;;;;;29.85;20.08;;;;;;;30.09;78.80;101306.59;5034945;28;65926;-33
2024/03/16 01:35:54;;;;;;;26.30;20.92;;;;;;;30.11;78.17;101309.91;5050604;28;69576;-34
2024/03/16 01:38:24;;;;;;;25.60;20.63;;;;;;;30.08;78.09;101304.91;5047586;28;66643;-32
2024/03/16 01:40:55;;;;;;;28.08;19.20;;;;;;;30.16;78.52;101302.00;5043677;28;70201;-34
2024/03/16 01:43:27;;;;;;;22.38;18.90;;;;;;;30.20;77.59;101314.09;5048835;28;65577;-32
2024/03/16 01:45:58;;;;;;;23.88;17.95;;;;;;;30.22;77.54;101306.63;5045147;28;69585;-31
2024/03/16 01:48:29;;;;;;;24.52;18.45;;;;;;;30.25;78.24;101324.31;5052431;28;65918;-30
2024/03/16 01:51:00;;;;;;;18.63;16.90;;;;;;;30.27;78.16;101320.38;5046808;28;71774;-31
2024/03/16 01:53:34;;;;;;;19.23;17.35;;;;;;;30.31;78.13;101322.66;5043265;28;65384;-31
2024/03/16 01:56:05;;;;;;;18.90;16.93;;;;;;;30.31;79.20;101319.97;5054066;28;69397;-32
2024/03/16 01:58:43;;;;;;;18.85;16.85;;;;;;;30.15;78.92;101292.22;5060116;28;66516;-34
2024/03/16 02:01:14;;;;;;;19.20;16.95;;;;;;;30.39;78.36;101327.88;5048752;28;69051;-33
2024/03/16 02:03:46;;;;;;;17.30;15.50;;;;;;;30.39;78.31;101319.75;5039434;28;66863;-34
2024/03/16 02:06:17;;;;;;;18.67;16.40;;;;;;;30.42;78.38;101332.88;5051065;28;69673;-35
2024/03/16 02:08:48;;;;;;;24.10;16.13;;;;;;;30.53;78.87;101339.56;5045506;28;65768;-39
2024/03/16 02:11:20;;;;;;;20.20;16.83;;;;;;;30.50;78.60;101338.09;5048082;28;70272;-33
2024/03/16 02:13:51;;;;;;;17.20;15.48;;;;;;;30.49;78.34;101329.16;5041062;28;65741;-34
2024/03/16 02:16:22;;;;;;;18.75;15.63;;;;;;;30.57;78.38;101340.81;5043039;28;69224;-34
2024/03/16 02:18:53;;;;;;;22.87;15.87;;;;;;;30.57;77.86;101336.25;5044597;28;65108;-35
2024/03/16 02:21:26;;;;;;;16.33;14.70;;;;;;;30.57;77.98;101336.25;5033869;28;70049;-36
2024/03/16 02:23:57;;;;;;;16.98;15.23;;;;;;;30.65;77.75;101344.16;5044156;28;66005;-33
2024/03/16 02:26:27;;;;;;;17.02;15.23;;;;;;;30.68;77.54;101332.06;5038995;28;70178;-35
2024/03/16 02:28:59;;;;;;;17.45;15.05;;;;;;;30.66;77.50;101321.44;5045260;28;66434;-34
2024/03/16 02:31:30;;;;;;;20.27;15.00;;;;;;;30.71;78.17;101332.47;5047573;28;70198;-33
2024/03/16 02:34:02;;;;;;;16.98;15.05;;;;;;;30.74;77.71;101331.25;5028679;28;65319;-41
2024/03/16 02:36:33;;;;;;;18.70;15.13;;;;;;;30.79;77.66;101338.75;5064241;28;70460;-34
2024/03/16 02:39:05;;;;;;;15.27;13.93;;;;;;;30.80;77.57;101335.00;5040691;28;66520;-34
2024/03/16 02:41:36;;;;;;;19.70;15.13;;;;;;;30.86;77.45;101342.31;5039497;28;69974;-34
2024/03/16 02:44:07;;;;;;;16.77;15.00;;;;;;;30.86;77.44;101334.19;5047360;28;65510;-36
2024/03/16 02:46:38;;;;;;;16.98;14.88;;;;;;;30.90;77.16;101327.31;5046547;28;70920;-35
2024/03/16 02:49:09;;;;;;;16.80;14.88;;;;;;;30.92;76.71;101327.91;5039801;28;65762;-34
2024/03/16 02:51:41;;;;;;;16.75;15.05;;;;;;;30.94;77.17;101331.25;5045898;28;69033;-34
2024/03/16 02:54:12;;;;;;;21.40;15.20;;;;;;;30.96;76.64;101329.19;5038061;28;66576;-36
2024/03/16 02:56:44;;;;;;;16.05;14.73;;;;;;;31.03;76.43;101332.69;5032850;28;69595;-34
2024/03/16 02:59:14;;;;;;;16.35;14.30;;;;;;;30.94;76.68;101326.66;5038605;28;66441;-34
2024/03/16 03:01:45;;;;;;;22.10;14.57;;;;;;;30.99;76.78;101327.94;5044543;28;70114;-34
2024/03/16 03:04:16;;;;;;;16.30;14.77;;;;;;;31.06;76.30;101324.13;5041827;28;66740;-34
2024/03/16 03:06:47;;;;;;;19.60;14.52;;;;;;;31.09;75.97;101321.03;5042418;28;70432;-34
2024/03/16 03:09:18;;;;;;;15.73;14.10;;;;;;;31.10;75.65;101317.25;5042894;28;66208;-34
2024/03/16 03:11:48;;;;;;;15.10;13.70;;;;;;;31.19;75.35;101334.13;5042504;28;69793;-36
2024/03/16 03:14:19;;;;;;;18.85;14.35;;;;;;;31.21;75.44;101320.38;5043256;28;65610;-33
2024/03/16 03:16:50;;;;;;;15.77;14.27;;;;;;;31.21;75.49;101326.63;5046793;28;69821;-34
2024/03/16 03:19:21;;;;;;;19.20;14.68;;;;;;;31.24;75.38;101317.25;5046003;28;66388;-34
2024/03/16 03:21:52;;;;;;;15.07;13.65;;;;;;;31.29;75.15;101312.03;5044639;28;70647;-34
2024/03/16 03:24:22;;;;;;;15.77;13.90;;;;;;;31.33;75.45;101310.53;5044596;28;65684;-34
2024/03/16 03:26:54;;;;;;;17.27;14.82;;;;;;;31.36;75.11;101302.00;5046636;28;70766;-36
2024/03/16 03:29:25;;;;;;;17.75;14.65;;;;;;;31.36;75.09;101302.84;5036106;28;65948;-34
2024/03/16 03:31:57;;;;;;;15.55;14.00;;;;;;;31.43;75.10;101291.97;5057429;28;69967;-34
2024/03/16 03:34:27;;;;;;;;;;;;;;;31.31;75.95;101289.06;5040105;28;66783;-34
2024/03/16 03:36:58;;;;;;;17.05;14.68;;;;;;;31.47;75.04;101286.97;5041820;28;70756;-35
2024/03/16 03:39:29;;;;;;;16.95;14.60;;;;;;;31.46;75.13;101279.88;5037860;28;66063;-36
2024/03/16 03:42:00;;;;;;;21.13;14.60;;;;;;;31.55;75.08;101281.28;5058768;27;70574;-33
2024/03/16 03:44:49;;;;;;;23.13;14.07;;;;;;;31.42;74.55;101257.78;5029811;28;66123;-36
2024/03/16 03:47:30;;;;;;;20.83;15.68;;;;;;;31.56;74.37;101264.78;5038728;28;70070;-36
2024/03/16 03:50:00;;;;;;;16.65;14.57;;;;;;;31.58;74.29;101251.84;5028574;28;66527;-35
2024/03/16 03:52:31;;;;;;;18.98;14.75;;;;;;;31.67;74.53;101248.91;5049246;28;70037;-33
2024/03/16 03:55:01;;;;;;;22.27;15.45;;;;;;;31.69;74.44;101246.81;5043966;28;66612;-34
2024/03/16 03:57:32;;;;;;;17.20;15.18;;;;;;;31.71;74.26;101244.72;5044200;28;70186;-34
2024/03/16 04:00:03;;;;;;;20.75;15.63;;;;;;;31.77;74.21;101243.84;5043727;28;66367;-34
2024/03/16 04:02:39;;;;;;;16.88;15.02;;;;;;;31.76;73.79;101237.59;5044811;28;70498;-35
2024/03/16 04:05:10;;;;;;;21.67;15.48;;;;;;;31.67;74.03;101210.94;5040298;28;65426;-34
2024/03/16 04:07:41;;;;;;;15.60;14.27;;;;;;;31.82;74.05;101230.47;5049333;28;69200;-38
2024/03/16 04:10:12;;;;;;;;;;;;;;;31.79;74.11;101225.47;5059205;28;66928;-35
2024/03/16 04:12:42;;;;;;;15.85;14.45;;;;;;;31.94;73.60;101223.31;5054083;28;69924;-34
2024/03/16 04:15:15;;;;;;;21.75;13.77;;;;;;;31.94;73.62;101208.91;5057644;28;66916;-36
2024/03/16 04:17:46;;;;;;;23.27;15.35;;;;;;;31.95;73.60;101197.81;5042972;28;70753;-34
2024/03/16 04:20:21;;;;;;;16.98;15.05;;;;;;;32.01;73.58;101202.38;5057858;28;66155;-35
2024/03/16 04:22:52;;;;;;;19.02;15.55;;;;;;;32.02;73.81;101197.78;5057642;28;68973;-35
2024/03/16 04:25:23;;;;;;;16.77;15.07;;;;;;;32.08;73.58;101190.66;5050395;28;66677;-34
2024/03/16 04:27:54;;;;;;;16.05;14.50;;;;;;;32.08;73.36;101194.19;5054971;28;69670;-33
2024/03/16 04:30:26;;;;;;;16.52;14.90;;;;;;;32.11;72.98;101184.78;5029735;28;66822;-34
2024/03/16 04:32:59;;;;;;;16.30;14.68;;;;;;;32.16;72.84;101176.81;5049185;28;69136;-35
2024/03/16 04:35:29;;;;;;;16.75;14.65;;;;;;;32.18;72.62;101174.69;5047232;28;65930;-35
2024/03/16 04:38:00;;;;;;;16.65;14.98;;;;;;;32.25;72.70;101165.44;5051303;28;70679;-35
2024/03/16 04:40:31;;;;;;;19.00;14.88;;;;;;;32.24;71.91;101162.94;5043938;28;65722;-36
2024/03/16 04:43:02;;;;;;;19.67;15.13;;;;;;;32.27;72.07;101163.31;5056573;28;70747;-34
2024/03/16 04:45:33;;;;;;;15.57;13.63;;;;;;;32.32;71.90;101154.53;5053913;28;66438;-35
2024/03/16 04:48:04;;;;;;;17.97;14.73;;;;;;;32.35;71.84;101154.06;5055090;28;69966;-34
2024/03/16 04:50:35;;;;;;;16.03;14.47;;;;;;;32.36;71.86;101147.56;5052305;28;66987;-33
2024/03/16 04:53:11;;;;;;;15.68;14.32;;;;;;;32.42;71.34;101145.84;5051715;28;70007;-35
2024/03/16 04:55:41;;;;;;;15.38;14.00;;;;;;;32.38;70.90;101148.19;5053856;28;66427;-34
2024/03/16 04:58:13;;;;;;;22.00;15.30;;;;;;;32.40;70.85;101128.94;5047897;28;69889;-34
2024/03/16 05:00:44;;;;;;;17.40;15.80;;;;;;;32.49;70.64;101133.06;5052140;28;66321;-34
2024/03/16 05:03:15;;;;;;;17.77;14.90;;;;;;;32.46;70.52;101123.50;5050699;28;69554;-35
2024/03/16 05:05:49;;;;;;;17.83;15.35;;;;;;;32.55;70.81;101117.75;5048522;28;66659;-34
2024/03/16 05:08:20;;;;;;;20.10;15.38;;;;;;;32.57;70.78;101108.34;5050127;28;70161;-34
2024/03/16 05:10:54;;;;;;;16.05;14.57;;;;;;;32.52;70.63;101093.78;5042079;28;65780;-34
2024/03/16 05:13:28;;;;;;;16.85;15.20;;;;;;;32.61;70.94;101097.84;5051852;28;69997;-34
2024/03/16 05:16:07;;;;;;;16.45;14.75;;;;;;;32.64;70.81;101091.97;5043758;28;65815;-34
2024/03/16 05:18:38;;;;;;;16.20;14.57;;;;;;;32.71;71.36;101092.72;5053467;28;70600;-34
2024/03/16 05:21:08;;;;;;;18.35;14.32;;;;;;;32.74;70.98;101092.25;5046301;28;66526;-36
2024/03/16 05:23:39;;;;;;;16.57;14.90;;;;;;;32.75;71.56;101077.59;5045348;28;70334;-37
2024/03/16 05:26:10;;;;;;;19.80;14.20;;;;;;;32.72;69.99;101075.34;5049607;28;67071;-34
2024/03/16 05:28:41;;;;;;;21.98;13.95;;;;;;;32.63;68.46;101068.59;5045304;28;69746;-34
2024/03/16 05:31:11;;;;;;;14.85;13.43;;;;;;;32.62;67.07;101072.34;5048192;28;66815;-35
2024/03/16 05:33:43;;;;;;;15.27;13.80;;;;;;;32.53;65.81;101073.72;5049622;28;70305;-33
2024/03/16 05:36:14;;;;;;;21.20;13.27;;;;;;;32.51;64.71;101064.94;5040970;28;66254;-35
2024/03/16 05:38:48;;;;;;;17.92;12.80;;;;;;;32.48;64.76;101056.22;5024602;28;68641;-35
2024/03/16 05:41:19;;;;;;;21.05;13.18;;;;;;;32.38;63.14;101057.78;5040755;28;66998;-34
2024/03/16 05:43:51;;;;;;;21.08;12.13;;;;;;;32.33;62.91;101046.75;5042424;28;70336;-33
2024/03/16 05:46:21;;;;;;;15.55;12.38;;;;;;;32.31;62.48;101048.88;5038602;28;66712;-36
2024/03/16 05:48:52;;;;;;;28.00;12.00;;;;;;;32.26;62.25;101044.09;5040023;28;70310;-35
2024/03/16 05:51:24;;;;;;;13.63;12.20;;;;;;;32.23;61.61;101030.97;5044122;28;68037;-36
2024/03/16 05:53:56;;;;;;;18.75;11.93;;;;;;;32.25;60.94;101034.31;5043368;28;69785;-35
2024/03/16 05:56:27;;;;;;;17.48;11.30;;;;;;;32.26;61.22;101019.66;5046553;28;65876;-35
2024/03/16 05:58:57;;;;;;;16.23;11.55;;;;;;;32.23;60.84;101014.69;5043950;28;69429;-37
2024/03/16 06:01:28;;;;;;;13.10;11.60;;;;;;;32.21;60.35;101011.41;5046946;28;66280;-37
2024/03/16 06:03:59;;;;;;;12.15;11.25;;;;;;;32.12;60.38;100996.47;5029858;28;69624;-36
2024/03/16 06:06:32;;;;;;;11.73;10.80;;;;;;;32.17;59.33;100999.31;5044310;28;65685;-36
2024/03/16 06:09:04;;;;;;;11.52;10.40;;;;;;;32.19;58.99;100989.09;5056063;28;69975;-34
2024/03/16 06:11:38;;;;;;;11.07;10.20;;;;;;;32.13;59.72;100981.84;5043037;28;66521;-38
2024/03/16 06:14:12;;;;;;;11.53;10.60;;;;;;;32.09;59.77;100975.19;5045186;28;70682;-35
2024/03/16 06:16:44;;;;;;;11.65;10.73;;;;;;;32.07;58.65;100967.31;5031654;28;66442;-34
2024/03/16 06:19:15;;;;;;;13.20;10.65;;;;;;;32.12;58.52;100963.88;5050919;28;69517;-35
2024/03/16 06:21:46;;;;;;;11.20;10.13;;;;;;;32.09;58.88;100958.91;5045066;28;66985;-34
2024/03/16 06:24:17;;;;;;;11.40;10.60;;;;;;;32.05;58.65;100945.00;5049672;28;70054;-35
2024/03/16 06:26:54;;;;;;;13.05;11.32;;;;;;;32.07;58.88;100951.03;5050291;28;65787;-35
2024/03/16 06:29:26;;;;;;;12.30;11.35;;;;;;;32.21;59.70;100948.97;5045255;28;70326;-34
2024/03/16 06:32:05;;;;;;;10.68;9.70;;;;;;;32.35;60.07;100947.75;5056925;28;65661;-38
2024/03/16 06:34:35;;;;;;;10.77;10.07;;;;;;;32.47;60.21;100937.78;5044174;28;69762;-34
2024/03/16 06:37:06;;;;;;;10.52;9.80;;;;;;;32.57;60.50;100933.69;5038704;28;66379;-36
2024/03/16 06:39:37;;;;;;;10.67;9.77;;;;;;;32.63;60.56;100932.78;5040434;28;70647;-37
2024/03/16 06:42:10;;;;;;;10.80;10.15;;;;;;;32.69;60.65;100929.97;5047836;28;66703;-38
2024/03/16 06:44:41;;;;;;;10.88;9.85;;;;;;;32.76;60.89;100916.25;5052393;28;70069;-34
2024/03/16 06:47:11;;;;;;;10.18;9.38;;;;;;;32.87;61.18;100923.63;5041104;28;66583;-35
2024/03/16 06:49:42;;;;;;;10.95;10.20;;;;;;;32.97;61.14;100914.09;5051961;28;70530;-34
2024/03/16 06:52:15;;;;;;;11.25;10.40;;;;;;;33.00;61.33;100909.03;5056556;28;66649;-36
2024/03/16 06:54:46;;;;;;;10.05;9.32;;;;;;;33.00;61.21;100900.06;5048900;28;70295;-37
2024/03/16 06:57:17;;;;;;;11.18;9.68;;;;;;;33.17;61.87;100906.44;5048013;28;65962;-37
2024/03/16 06:59:48;;;;;;;10.50;9.75;;;;;;;33.21;61.51;100901.34;5054064;28;70441;-35
2024/03/16 07:02:19;;;;;;;10.38;9.38;;;;;;;33.29;61.55;100901.00;5053525;28;65895;-34
2024/03/16 07:04:50;;;;;;;9.80;9.20;;;;;;;33.35;61.64;100887.31;5038466;28;69416;-34
2024/03/16 07:07:23;;;;;;;9.85;9.25;;;;;;;33.42;61.75;100892.63;5039777;28;66425;-34
2024/03/16 07:09:54;;;;;;;10.63;9.77;;;;;;;33.48;61.96;100896.28;5036936;28;70178;-34
2024/03/16 07:12:27;;;;;;;10.52;9.77;;;;;;;33.55;61.97;100886.16;5044349;28;66307;-36
2024/03/16 07:14:59;;;;;;;10.50;9.63;;;;;;;33.62;62.01;100881.38;5048181;28;70368;-36
2024/03/16 07:17:31;;;;;;;;;;;;;;;33.63;61.09;100877.63;5051083;28;67088;-34
2024/03/16 07:20:02;;;;;;;9.60;8.60;;;;;;;33.76;62.24;100871.88;5048453;28;72517;-35
2024/03/16 07:22:33;;;;;;;10.23;9.32;;;;;;;33.80;62.25;100864.91;5050821;28;66941;-36
2024/03/16 07:25:05;;;;;;;9.25;8.60;;;;;;;33.92;62.34;100858.63;5041863;28;69851;-35
2024/03/16 07:27:36;;;;;;;;;;;;;;;33.90;61.24;100860.75;5038887;28;66521;-34
2024/03/16 07:30:10;;;;;;;9.05;8.45;;;;;;;34.06;62.18;100851.03;5037182;28;70768;-34
2024/03/16 07:32:43;;;;;;;9.40;8.80;;;;;;;34.07;62.05;100856.22;5039313;28;66778;-34
2024/03/16 07:35:14;;;;;;;9.90;9.20;;;;;;;34.14;62.43;100846.00;5045987;28;69898;-37
2024/03/16 07:37:45;;;;;;;9.35;8.77;;;;;;;34.23;62.18;100844.53;5047951;28;66240;-35
2024/03/16 07:40:17;;;;;;;9.60;8.77;;;;;;;34.30;62.31;100835.38;5038638;28;69445;-35
2024/03/16 07:42:49;;;;;;;11.20;8.15;;;;;;;34.37;62.41;100845.06;5039301;28;65279;-35
2024/03/16 07:45:22;;;;;;;8.73;8.02;;;;;;;34.38;61.91;100835.00;5049911;28;69832;-38
2024/03/16 07:47:53;;;;;;;8.70;8.03;;;;;;;34.50;62.29;100843.13;5042324;28;66241;-34
2024/03/16 07:50:25;;;;;;;9.27;8.68;;;;;;;34.56;62.55;100837.53;5032338;28;70066;-34
2024/03/16 07:52:56;;;;;;;9.57;8.70;;;;;;;34.66;62.02;100834.97;5038575;28;65342;-35
2024/03/16 07:55:29;;;;;;;9.13;8.52;;;;;;;34.70;61.96;100833.41;5033994;28;70097;-35
2024/03/16 07:58:00;;;;;;;8.75;8.23;;;;;;;34.79;62.46;100836.53;5043825;28;67242;-36
2024/03/16 08:00:31;;;;;;;8.60;8.10;;;;;;;34.86;62.43;100833.66;5048799;28;69858;-35
2024/03/16 08:03:02;;;;;;;8.32;7.85;;;;;;;34.93;62.13;100837.84;5047455;28;65228;-37
2024/03/16 08:05:34;;;;;;;;;;;;;;;34.91;61.80;100828.28;5046877;28;70450;-36
2024/03/16 08:08:05;;;;;;;8.95;8.35;;;;;;;35.02;62.24;100821.91;5043166;28;65863;-35
2024/03/16 08:10:35;;;;;;;8.27;7.83;;;;;;;35.13;61.97;100831.06;5047929;28;70225;-34
2024/03/16 08:13:06;;;;;;;9.33;8.57;;;;;;;35.20;62.49;100830.91;5050377;28;66690;-35
2024/03/16 08:15:37;;;;;;;9.30;8.60;;;;;;;35.27;62.67;100831.53;5045885;28;69027;-36
2024/03/16 08:18:11;;;;;;;;;;;;;;;35.26;63.02;100835.34;5053499;28;66056;-35
2024/03/16 08:20:43;;;;;;;9.85;9.05;;;;;;;35.44;63.24;100829.63;5045976;28;70450;-35
2024/03/16 08:23:15;;;;;;;13.40;9.30;;;;;;;35.50;63.65;100836.78;5043376;28;64684;-36
2024/03/16 08:25:46;;;;;;;10.25;9.57;;;;;;;35.57;63.67;100829.25;5053207;28;70798;-36
2024/03/16 08:28:18;;;;;;;12.77;9.82;;;;;;;35.64;63.06;100825.53;5041795;28;66478;-36
2024/03/16 08:30:49;;;;;;;10.45;9.77;;;;;;;35.68;63.13;100816.56;5042258;28;70173;-35
2024/03/16 08:33:20;;;;;;;11.00;10.33;;;;;;;35.85;63.62;100821.13;5056356;28;65479;-34
2024/03/16 08:35:51;;;;;;;10.90;10.15;;;;;;;35.91;62.97;100820.94;5057823;28;70756;-35
2024/03/16 08:38:23;;;;;;;10.82;9.93;;;;;;;36.00;63.47;100815.84;5044094;28;65773;-36
2024/03/16 08:40:55;;;;;;;11.27;10.15;;;;;;;36.13;63.31;100820.91;5035025;28;70318;-34
2024/03/16 08:43:25;;;;;;;11.13;10.07;;;;;;;36.19;63.19;100816.31;5049211;28;66632;-34
2024/03/16 08:46:06;;;;;;;12.13;10.75;;;;;;;36.21;62.57;100814.97;5045451;28;70408;-34
2024/03/16 08:48:37;;;;;;;10.70;9.90;;;;;;;36.26;63.02;100811.47;5037270;28;66308;-35
2024/03/16 08:51:08;;;;;;;10.30;9.60;;;;;;;36.29;63.15;100805.47;5050699;28;68983;-37
2024/03/16 08:53:39;;;;;;;10.35;9.20;;;;;;;36.39;62.75;100815.69;5049613;28;67767;-35
2024/03/16 08:56:11;;;;;;;12.90;10.90;;;;;;;36.42;63.12;100817.91;5054864;28;69452;-37
2024/03/16 08:58:42;;;;;;;10.88;10.07;;;;;;;36.49;62.57;100821.22;5051729;28;66211;-36
2024/03/16 09:01:16;;;;;;;11.32;10.23;;;;;;;36.53;63.18;100819.66;5062076;28;70060;-35
2024/03/16 09:03:47;;;;;;;11.18;10.55;;;;;;;36.63;62.88;100821.66;5046693;28;66506;-34
2024/03/16 09:06:21;;;;;;;18.80;12.20;;;;;;;36.58;63.16;100824.31;5047593;28;70169;-34
2024/03/16 09:08:58;;;;;;;13.02;11.88;;;;;;;36.58;62.94;100814.25;5056457;28;67865;-35
2024/03/16 09:11:31;;;;;;;13.95;12.40;;;;;;;36.59;63.64;100815.06;5055102;28;70330;-35
2024/03/16 09:14:05;;;;;;;14.32;12.95;;;;;;;36.66;63.31;100821.97;5028761;28;66067;-37
2024/03/16 09:16:40;;;;;;;15.98;12.43;;;;;;;36.66;63.09;100827.44;5043347;28;70041;-36
2024/03/16 09:19:12;;;;;;;13.77;12.40;;;;;;;36.68;63.12;100829.88;5038388;28;66264;-35
2024/03/16 09:21:43;;;;;;;13.68;12.50;;;;;;;36.72;63.44;100828.28;5057853;28;70228;-37
2024/03/16 09:24:15;;;;;;;18.55;13.02;;;;;;;36.74;63.57;100839.75;5045417;28;66081;-37
2024/03/16 09:26:45;;;;;;;14.65;13.05;;;;;;;36.87;63.21;100843.97;5039348;28;69956;-34
2024/03/16 09:29:16;;;;;;;18.52;13.32;;;;;;;36.79;62.84;100837.06;5043689;28;65784;-35
2024/03/16 09:31:47;;;;;;;16.77;12.02;;;;;;;36.87;62.83;100839.31;5046968;28;68858;-37
2024/03/16 09:34:18;;;;;;;13.85;12.02;;;;;;;36.89;63.22;100836.34;5049156;28;65418;-35
2024/03/16 09:36:50;;;;;;;14.23;12.75;;;;;;;36.90;62.77;100844.25;5054426;28;69203;-35
2024/03/16 09:39:26;;;;;;;;;;;;;;;36.85;61.94;100841.50;5044882;28;65974;-35
2024/03/16 09:41:57;;;;;;;14.82;13.40;;;;;;;36.93;61.72;100842.09;5039946;28;69979;-35
2024/03/16 09:44:28;;;;;;;;;;;;;;;36.97;61.41;100855.00;5049473;28;66291;-38
2024/03/16 09:46:59;;;;;;;20.13;12.13;;;;;;;37.00;61.52;100856.34;5011164;28;70422;-36
2024/03/16 09:49:30;;;;;;;14.10;12.00;;;;;;;37.05;61.48;100856.41;5042406;28;65332;-36
2024/03/16 09:52:03;;;;;;;23.08;11.65;;;;;;;36.87;60.68;100833.84;5037991;28;69540;-36
2024/03/16 09:54:32;;;;;;;13.98;11.57;;;;;;;37.05;60.64;100853.69;5054281;28;65546;-36
2024/03/16 09:57:03;;;;;;;20.30;10.50;;;;;;;37.08;61.28;100855.88;5072310;27;70404;-37
2024/03/16 09:59:33;;;;;;;12.75;9.98;;;;;;;37.01;60.95;100852.53;5025025;28;65747;-39
2024/03/16 10:02:03;;;;;;;11.38;10.38;;;;;;;37.05;60.46;100867.34;5054757;28;70251;-36
2024/03/16 10:04:35;;;;;;;10.77;9.25;;;;;;;37.08;60.56;100862.22;5049371;28;66479;-37
2024/03/16 10:07:05;;;;;;;10.65;9.63;;;;;;;37.02;61.27;100873.34;5047261;28;70198;-35
2024/03/16 10:09:34;;;;;;;15.70;9.55;;;;;;;36.96;60.73;100860.72;5039135;28;65971;-35
2024/03/16 10:12:09;;;;;;;11.70;9.63;;;;;;;37.01;60.31;100877.16;5037135;28;70319;-37
2024/03/16 10:14:40;;;;;;;14.10;10.00;;;;;;;37.04;61.13;100882.13;5041494;28;65596;-41
2024/03/16 10:17:09;;;;;;;14.80;10.05;;;;;;;37.00;61.01;100879.06;5045255;28;70431;-34
2024/03/16 10:19:39;;;;;;;14.30;9.50;;;;;;;37.02;62.02;100887.84;5052167;28;65695;-35
2024/03/16 10:22:08;;;;;;;21.25;10.07;;;;;;;36.99;61.78;100902.00;5030403;28;70026;-35
2024/03/16 10:24:39;;;;;;;15.48;9.55;;;;;;;37.00;62.53;100902.84;5022523;28;65331;-33
2024/03/16 10:27:11;;;;;;;27.95;10.40;;;;;;;36.97;62.66;100893.28;5044330;28;71221;-36
2024/03/16 10:29:40;;;;;;;50.30;10.43;;;;;;;36.98;63.27;100900.38;5046459;28;66414;-35
2024/03/16 10:32:09;;;;;;;82.10;11.60;;;;;;;37.01;62.98;100901.75;5050595;28;70048;-35
2024/03/16 10:34:40;;;;;;;54.80;11.32;;;;;;;36.91;62.57;100903.31;5041337;28;66357;-35
2024/03/16 10:37:10;;;;;;;52.75;11.77;;;;;;;36.88;62.69;100913.94;5057989;28;70170;-35
2024/03/16 10:39:42;;;;;;;22.73;10.85;;;;;;;36.61;63.13;100887.50;5031782;28;65425;-37
2024/03/16 10:42:15;;;;;;;30.08;11.50;;;;;;;36.80;62.67;100909.78;5044516;28;70218;-37
2024/03/16 10:44:46;;;;;;;31.90;11.25;;;;;;;36.73;62.61;100911.94;5027484;28;66494;-36
2024/03/16 10:47:15;;;;;;;34.92;11.18;;;;;;;36.75;62.75;100912.50;5036962;28;68186;-36
2024/03/16 10:49:44;;;;;;;24.08;12.10;;;;;;;36.74;62.93;100920.94;5038402;28;66224;-35
2024/03/16 10:52:13;;;;;;;12.85;11.63;;;;;;;36.60;63.55;100932.28;5040678;28;69587;-36
2024/03/16 10:54:42;;;;;;;13.60;11.98;;;;;;;36.60;63.21;100936.94;5053186;28;65757;-34
2024/03/16 10:57:11;;;;;;;21.60;13.63;;;;;;;36.60;63.32;100943.22;5052154;28;70072;-35
2024/03/16 10:59:43;;;;;;;15.43;12.07;;;;;;;36.39;64.14;100927.69;5034817;28;65586;-34
2024/03/16 11:02:13;;;;;;;16.38;13.25;;;;;;;36.43;63.74;100948.75;5043556;28;69562;-36
2024/03/16 11:04:51;;;;;;;19.40;12.65;;;;;;;36.39;64.19;100947.63;5050472;28;66742;-37
2024/03/16 11:07:20;;;;;;;15.50;11.98;;;;;;;36.40;64.03;100956.66;5045715;28;70173;-35
2024/03/16 11:09:51;;;;;;;17.77;12.88;;;;;;;36.34;64.04;100966.69;5058092;28;65832;-35
2024/03/16 11:12:33;;;;;;;17.65;13.02;;;;;;;36.20;64.55;100971.72;5061997;28;70179;-38
2024/03/16 11:15:30;;;;;;;23.67;13.43;;;;;;;36.16;65.21;100967.88;5046281;28;66474;-36
2024/03/16 11:18:29;;;;;;;15.23;13.40;;;;;;;36.14;65.59;100982.84;5042247;28;70164;-34
2024/03/16 11:20:58;;;;;;;27.17;13.18;;;;;;;36.17;65.83;100982.34;5024911;28;65772;-34
2024/03/16 11:23:31;;;;;;;25.13;15.18;;;;;;;35.93;66.35;100957.97;5043216;28;70265;-35
2024/03/16 11:26:31;;;;;;;34.25;16.25;;;;;;;36.06;66.81;100991.47;5056138;28;66716;-35
2024/03/16 11:29:08;;;;;;;28.90;14.93;;;;;;;35.85;67.12;100958.41;5041126;28;69396;-36
2024/03/16 11:31:46;;;;;;;27.77;14.52;;;;;;;36.06;67.12;100994.22;5034331;28;66385;-34
2024/03/16 11:34:17;;;;;;;30.27;14.35;;;;;;;36.01;66.40;100990.28;5050744;28;69741;-35